sensor_id;sensor_type;location;lat;lon;timestamp;temperature;humidity
31309;DHT22;17936;52.446;10.840;2023-01-29T00:01:24;-0.10;99.90
31309;DHT22;17936;52.446;10.840;2023-01-29T00:03:51;-0.10;99.90
31309;DHT22;17936;52.446;10.840;2023-01-29T00:06:16;-0.10;99.90
31309;DHT22;17936;52.446;10.840;2023-01-29T00:08:42;-0.10;99.90
31309;DHT22;17936;52.446;10.840;2023-01-29T00:11:08;-0.10;99.90
31309;DHT22;17936;52.446;10.840;2023-01-29T00:13:34;-0.20;99.90
31309;DHT22;17936;52.446;10.840;2023-01-29T00:16:00;-0.20;99.90
31309;DHT22;17936;52.446;10.840;2023-01-29T00:18:26;-0.20;1.00
31309;DHT22;17936;52.446;10.840;2023-01-29T00:20:52;-0.10;1.00
31309;DHT22;17936;52.446;10.840;2023-01-29T00:23:18;-0.10;1.00
31309;DHT22;17936;52.446;10.840;2023-01-29T00:25:44;-0.10;1.00
31309;DHT22;17936;52.446;10.840;2023-01-29T00:28:10;-0.10;1.00
31309;DHT22;17936;52.446;10.840;2023-01-29T00:30:36;0.00;1.00
31309;DHT22;17936;52.446;10.840;2023-01-29T00:33:03;0.00;1.00
31309;DHT22;17936;52.446;10.840;2023-01-29T00:35:29;0.00;1.00
31309;DHT22;17936;52.446;10.840;2023-01-29T00:37:55;0.00;99.90
31309;DHT22;17936;52.446;10.840;2023-01-29T00:40:21;0.00;99.90
31309;DHT22;17936;52.446;10.840;2023-01-29T00:42:50;0.00;99.90
31309;DHT22;17936;52.446;10.840;2023-01-29T00:45:35;0.00;99.90
31309;DHT22;17936;52.446;10.840;2023-01-29T00:48:03;0.10;99.90
31309;DHT22;17936;52.446;10.840;2023-01-29T00:50:30;0.10;99.90
31309;DHT22;17936;52.446;10.840;2023-01-29T00:52:55;0.10;99.90
31309;DHT22;17936;52.446;10.840;2023-01-29T00:55:21;0.10;99.90
31309;DHT22;17936;52.446;10.840;2023-01-29T00:57:47;0.10;99.90
31309;DHT22;17936;52.446;10.840;2023-01-29T01:00:15;0.10;99.90
31309;DHT22;17936;52.446;10.840;2023-01-29T01:02:41;0.10;99.90
31309;DHT22;17936;52.446;10.840;2023-01-29T01:05:25;0.00;99.90
31309;DHT22;17936;52.446;10.840;2023-01-29T01:07:53;0.00;99.90
31309;DHT22;17936;52.446;10.840;2023-01-29T01:10:21;0.10;99.90
31309;DHT22;17936;52.446;10.840;2023-01-29T01:13:05;0.00;99.90
31309;DHT22;17936;52.446;10.840;2023-01-29T01:15:38;0.00;99.90
31309;DHT22;17936;52.446;10.840;2023-01-29T01:18:04;0.10;99.90
31309;DHT22;17936;52.446;10.840;2023-01-29T01:20:31;0.10;99.90
31309;DHT22;17936;52.446;10.840;2023-01-29T01:22:57;0.10;99.90
31309;DHT22;17936;52.446;10.840;2023-01-29T01:25:24;0.10;99.90
31309;DHT22;17936;52.446;10.840;2023-01-29T01:27:54;0.10;1.00
31309;DHT22;17936;52.446;10.840;2023-01-29T01:30:20;0.10;1.00
31309;DHT22;17936;52.446;10.840;2023-01-29T01:32:46;0.20;99.90
31309;DHT22;17936;52.446;10.840;2023-01-29T01:35:12;0.20;99.90
31309;DHT22;17936;52.446;10.840;2023-01-29T01:37:39;0.20;99.90
31309;DHT22;17936;52.446;10.840;2023-01-29T01:40:08;0.20;99.90
31309;DHT22;17936;52.446;10.840;2023-01-29T01:42:37;0.20;99.90
31309;DHT22;17936;52.446;10.840;2023-01-29T01:45:06;0.30;99.90
31309;DHT22;17936;52.446;10.840;2023-01-29T01:47:40;0.30;99.90
31309;DHT22;17936;52.446;10.840;2023-01-29T01:50:14;0.30;99.90
31309;DHT22;17936;52.446;10.840;2023-01-29T01:52:45;0.30;99.90
31309;DHT22;17936;52.446;10.840;2023-01-29T01:55:15;0.30;99.90
31309;DHT22;17936;52.446;10.840;2023-01-29T01:57:44;0.30;99.90
31309;DHT22;17936;52.446;10.840;2023-01-29T02:00:14;0.30;1.00
31309;DHT22;17936;52.446;10.840;2023-01-29T02:02:42;0.30;1.00
31309;DHT22;17936;52.446;10.840;2023-01-29T02:05:29;0.30;1.00
31309;DHT22;17936;52.446;10.840;2023-01-29T02:08:14;0.30;1.00
31309;DHT22;17936;52.446;10.840;2023-01-29T02:11:00;0.30;1.00
31309;DHT22;17936;52.446;10.840;2023-01-29T02:13:26;0.30;1.00
31309;DHT22;17936;52.446;10.840;2023-01-29T02:15:51;0.30;1.00
31309;DHT22;17936;52.446;10.840;2023-01-29T02:18:19;0.30;1.00
31309;DHT22;17936;52.446;10.840;2023-01-29T02:21:14;0.20;1.00
31309;DHT22;17936;52.446;10.840;2023-01-29T02:29:31;0.20;1.00
31309;DHT22;17936;52.446;10.840;2023-01-29T02:34:57;0.30;1.00
31309;DHT22;17936;52.446;10.840;2023-01-29T02:40:28;0.30;1.00
31309;DHT22;17936;52.446;10.840;2023-01-29T02:48:10;0.30;99.90
31309;DHT22;17936;52.446;10.840;2023-01-29T02:50:51;0.20;99.90
31309;DHT22;17936;52.446;10.840;2023-01-29T02:56:21;0.20;99.90
31309;DHT22;17936;52.446;10.840;2023-01-29T02:58:59;0.20;99.90
31309;DHT22;17936;52.446;10.840;2023-01-29T03:01:33;0.20;99.90
31309;DHT22;17936;52.446;10.840;2023-01-29T03:04:05;0.10;99.90
31309;DHT22;17936;52.446;10.840;2023-01-29T03:06:41;0.10;1.00
31309;DHT22;17936;52.446;10.840;2023-01-29T03:09:18;0.10;1.00
31309;DHT22;17936;52.446;10.840;2023-01-29T03:11:50;0.10;1.00
31309;DHT22;17936;52.446;10.840;2023-01-29T03:14:37;0.10;1.70
31309;DHT22;17936;52.446;10.840;2023-01-29T03:17:26;0.10;11.80
31309;DHT22;17936;52.446;10.840;2023-01-29T03:19:55;0.10;19.00
31309;DHT22;17936;52.446;10.840;2023-01-29T03:22:21;0.20;20.80
31309;DHT22;17936;52.446;10.840;2023-01-29T03:24:56;0.20;18.10
31309;DHT22;17936;52.446;10.840;2023-01-29T03:27:57;0.20;18.20
31309;DHT22;17936;52.446;10.840;2023-01-29T03:30:55;0.20;38.60
31309;DHT22;17936;52.446;10.840;2023-01-29T03:34:07;0.20;66.10
31309;DHT22;17936;52.446;10.840;2023-01-29T03:36:41;0.10;93.50
31309;DHT22;17936;52.446;10.840;2023-01-29T03:39:12;0.10;98.10
31309;DHT22;17936;52.446;10.840;2023-01-29T03:41:47;0.10;99.90
31309;DHT22;17936;52.446;10.840;2023-01-29T03:44:16;0.00;99.90
31309;DHT22;17936;52.446;10.840;2023-01-29T03:50:04;0.00;99.90
31309;DHT22;17936;52.446;10.840;2023-01-29T04:00:36;-0.10;99.90
31309;DHT22;17936;52.446;10.840;2023-01-29T04:03:25;-0.10;99.90
31309;DHT22;17936;52.446;10.840;2023-01-29T04:08:28;-0.10;99.90
31309;DHT22;17936;52.446;10.840;2023-01-29T04:10:58;-0.20;99.90
31309;DHT22;17936;52.446;10.840;2023-01-29T04:13:24;-0.20;99.90
31309;DHT22;17936;52.446;10.840;2023-01-29T04:15:55;-0.20;99.90
31309;DHT22;17936;52.446;10.840;2023-01-29T04:18:23;-0.30;99.90
31309;DHT22;17936;52.446;10.840;2023-01-29T04:20:49;-0.30;99.90
31309;DHT22;17936;52.446;10.840;2023-01-29T04:23:25;-0.30;99.90
31309;DHT22;17936;52.446;10.840;2023-01-29T04:32:27;-0.30;99.90
31309;DHT22;17936;52.446;10.840;2023-01-29T04:38:11;-0.30;99.90
31309;DHT22;17936;52.446;10.840;2023-01-29T04:41:19;-0.30;99.90
31309;DHT22;17936;52.446;10.840;2023-01-29T04:44:03;-0.30;99.90
31309;DHT22;17936;52.446;10.840;2023-01-29T04:46:38;-0.30;99.90
31309;DHT22;17936;52.446;10.840;2023-01-29T04:49:45;-0.20;99.90
31309;DHT22;17936;52.446;10.840;2023-01-29T04:52:33;-0.30;99.90
31309;DHT22;17936;52.446;10.840;2023-01-29T04:55:09;-0.30;99.90
31309;DHT22;17936;52.446;10.840;2023-01-29T05:00:28;-0.30;99.90
31309;DHT22;17936;52.446;10.840;2023-01-29T05:02:56;-0.30;99.90
31309;DHT22;17936;52.446;10.840;2023-01-29T05:05:23;-0.30;99.90
31309;DHT22;17936;52.446;10.840;2023-01-29T05:07:49;-0.30;99.90
31309;DHT22;17936;52.446;10.840;2023-01-29T05:10:17;-0.30;99.90
31309;DHT22;17936;52.446;10.840;2023-01-29T05:12:48;-0.30;99.90
31309;DHT22;17936;52.446;10.840;2023-01-29T05:15:19;-0.30;99.90
31309;DHT22;17936;52.446;10.840;2023-01-29T05:17:47;-0.20;99.90
31309;DHT22;17936;52.446;10.840;2023-01-29T05:20:12;-0.30;99.90
31309;DHT22;17936;52.446;10.840;2023-01-29T05:22:40;-0.20;99.90
31309;DHT22;17936;52.446;10.840;2023-01-29T05:25:22;-0.20;99.90
31309;DHT22;17936;52.446;10.840;2023-01-29T05:27:49;-0.20;99.90
31309;DHT22;17936;52.446;10.840;2023-01-29T05:30:35;-0.20;99.90
31309;DHT22;17936;52.446;10.840;2023-01-29T05:33:02;-0.30;99.90
31309;DHT22;17936;52.446;10.840;2023-01-29T05:35:28;-0.30;99.90
31309;DHT22;17936;52.446;10.840;2023-01-29T05:37:55;-0.30;99.90
31309;DHT22;17936;52.446;10.840;2023-01-29T05:40:21;-0.30;99.90
31309;DHT22;17936;52.446;10.840;2023-01-29T05:42:47;-0.20;99.90
31309;DHT22;17936;52.446;10.840;2023-01-29T05:45:12;-0.20;99.90
31309;DHT22;17936;52.446;10.840;2023-01-29T05:47:38;-0.20;99.90
31309;DHT22;17936;52.446;10.840;2023-01-29T05:50:04;-0.30;99.90
31309;DHT22;17936;52.446;10.840;2023-01-29T05:52:30;-0.20;99.90
31309;DHT22;17936;52.446;10.840;2023-01-29T05:54:56;-0.10;99.90
31309;DHT22;17936;52.446;10.840;2023-01-29T05:57:21;-0.10;99.90
31309;DHT22;17936;52.446;10.840;2023-01-29T05:59:47;-0.10;99.90
31309;DHT22;17936;52.446;10.840;2023-01-29T06:02:12;-0.10;99.90
31309;DHT22;17936;52.446;10.840;2023-01-29T06:04:38;-0.10;99.90
31309;DHT22;17936;52.446;10.840;2023-01-29T06:07:03;0.00;99.90
31309;DHT22;17936;52.446;10.840;2023-01-29T06:09:29;0.00;99.90
31309;DHT22;17936;52.446;10.840;2023-01-29T06:11:55;0.00;99.90
31309;DHT22;17936;52.446;10.840;2023-01-29T06:14:20;0.00;99.90
31309;DHT22;17936;52.446;10.840;2023-01-29T06:16:46;0.10;99.90
31309;DHT22;17936;52.446;10.840;2023-01-29T06:19:11;0.00;99.90
31309;DHT22;17936;52.446;10.840;2023-01-29T06:21:37;0.10;99.90
31309;DHT22;17936;52.446;10.840;2023-01-29T06:24:02;0.10;99.90
31309;DHT22;17936;52.446;10.840;2023-01-29T06:26:28;0.10;99.90
31309;DHT22;17936;52.446;10.840;2023-01-29T06:28:54;0.10;99.90
31309;DHT22;17936;52.446;10.840;2023-01-29T06:31:19;0.10;99.90
31309;DHT22;17936;52.446;10.840;2023-01-29T06:33:45;0.10;99.90
31309;DHT22;17936;52.446;10.840;2023-01-29T06:36:10;0.10;99.90
31309;DHT22;17936;52.446;10.840;2023-01-29T06:38:36;0.10;99.90
31309;DHT22;17936;52.446;10.840;2023-01-29T06:41:13;0.20;99.90
31309;DHT22;17936;52.446;10.840;2023-01-29T06:43:43;0.20;99.90
31309;DHT22;17936;52.446;10.840;2023-01-29T06:46:09;0.20;99.90
31309;DHT22;17936;52.446;10.840;2023-01-29T06:48:35;0.20;99.90
31309;DHT22;17936;52.446;10.840;2023-01-29T06:51:05;0.20;99.90
31309;DHT22;17936;52.446;10.840;2023-01-29T06:53:32;0.20;99.90
31309;DHT22;17936;52.446;10.840;2023-01-29T06:56:00;0.20;99.90
31309;DHT22;17936;52.446;10.840;2023-01-29T06:58:26;0.20;99.90
31309;DHT22;17936;52.446;10.840;2023-01-29T07:00:51;0.20;99.90
31309;DHT22;17936;52.446;10.840;2023-01-29T07:03:17;0.20;99.90
31309;DHT22;17936;52.446;10.840;2023-01-29T07:05:49;0.20;99.90
31309;DHT22;17936;52.446;10.840;2023-01-29T07:08:15;0.20;99.90
31309;DHT22;17936;52.446;10.840;2023-01-29T07:10:40;0.30;99.90
31309;DHT22;17936;52.446;10.840;2023-01-29T07:13:06;0.20;99.90
31309;DHT22;17936;52.446;10.840;2023-01-29T07:15:31;0.30;99.90
31309;DHT22;17936;52.446;10.840;2023-01-29T07:18:02;0.30;99.90
31309;DHT22;17936;52.446;10.840;2023-01-29T07:20:30;0.30;99.90
31309;DHT22;17936;52.446;10.840;2023-01-29T07:22:56;0.30;99.90
31309;DHT22;17936;52.446;10.840;2023-01-29T07:25:23;0.40;99.90
31309;DHT22;17936;52.446;10.840;2023-01-29T07:27:48;0.40;99.90
31309;DHT22;17936;52.446;10.840;2023-01-29T07:30:15;0.40;99.90
31309;DHT22;17936;52.446;10.840;2023-01-29T07:32:41;0.40;99.90
31309;DHT22;17936;52.446;10.840;2023-01-29T07:35:07;0.40;99.90
31309;DHT22;17936;52.446;10.840;2023-01-29T07:37:33;0.40;99.90
31309;DHT22;17936;52.446;10.840;2023-01-29T07:39:58;0.40;99.90
31309;DHT22;17936;52.446;10.840;2023-01-29T07:42:23;0.50;99.90
31309;DHT22;17936;52.446;10.840;2023-01-29T07:44:49;0.50;99.90
31309;DHT22;17936;52.446;10.840;2023-01-29T07:47:14;0.50;99.90
31309;DHT22;17936;52.446;10.840;2023-01-29T07:49:40;0.50;99.90
31309;DHT22;17936;52.446;10.840;2023-01-29T07:52:05;0.50;99.90
31309;DHT22;17936;52.446;10.840;2023-01-29T07:54:31;0.50;99.90
31309;DHT22;17936;52.446;10.840;2023-01-29T07:56:56;0.50;99.90
31309;DHT22;17936;52.446;10.840;2023-01-29T07:59:22;0.50;99.90
31309;DHT22;17936;52.446;10.840;2023-01-29T08:01:47;0.60;99.90
31309;DHT22;17936;52.446;10.840;2023-01-29T08:04:13;0.60;99.90
31309;DHT22;17936;52.446;10.840;2023-01-29T08:06:39;0.60;99.90
31309;DHT22;17936;52.446;10.840;2023-01-29T08:09:04;0.60;99.90
31309;DHT22;17936;52.446;10.840;2023-01-29T08:11:30;0.60;99.90
31309;DHT22;17936;52.446;10.840;2023-01-29T08:13:55;0.60;99.90
31309;DHT22;17936;52.446;10.840;2023-01-29T08:16:21;0.60;99.90
31309;DHT22;17936;52.446;10.840;2023-01-29T08:18:47;0.60;99.90
31309;DHT22;17936;52.446;10.840;2023-01-29T08:21:13;0.70;99.90
31309;DHT22;17936;52.446;10.840;2023-01-29T08:23:39;0.70;99.90
31309;DHT22;17936;52.446;10.840;2023-01-29T08:26:05;0.70;99.90
31309;DHT22;17936;52.446;10.840;2023-01-29T08:28:30;0.70;99.90
31309;DHT22;17936;52.446;10.840;2023-01-29T08:30:56;0.70;99.90
31309;DHT22;17936;52.446;10.840;2023-01-29T08:33:22;0.70;99.90
31309;DHT22;17936;52.446;10.840;2023-01-29T08:35:49;0.70;99.90
31309;DHT22;17936;52.446;10.840;2023-01-29T08:38:16;0.70;99.90
31309;DHT22;17936;52.446;10.840;2023-01-29T08:40:42;0.70;99.90
31309;DHT22;17936;52.446;10.840;2023-01-29T08:43:10;0.70;99.90
31309;DHT22;17936;52.446;10.840;2023-01-29T08:45:41;0.80;99.90
31309;DHT22;17936;52.446;10.840;2023-01-29T08:48:07;0.70;99.90
31309;DHT22;17936;52.446;10.840;2023-01-29T08:50:33;0.80;99.90
31309;DHT22;17936;52.446;10.840;2023-01-29T08:53:01;0.80;99.90
31309;DHT22;17936;52.446;10.840;2023-01-29T08:55:27;0.80;99.90
31309;DHT22;17936;52.446;10.840;2023-01-29T08:57:54;0.80;99.90
31309;DHT22;17936;52.446;10.840;2023-01-29T09:00:22;0.80;99.90
31309;DHT22;17936;52.446;10.840;2023-01-29T09:02:47;0.90;99.90
31309;DHT22;17936;52.446;10.840;2023-01-29T09:05:13;0.90;99.90
31309;DHT22;17936;52.446;10.840;2023-01-29T09:07:38;0.90;99.90
31309;DHT22;17936;52.446;10.840;2023-01-29T09:10:04;1.00;99.90
31309;DHT22;17936;52.446;10.840;2023-01-29T09:12:30;1.00;99.90
31309;DHT22;17936;52.446;10.840;2023-01-29T09:14:55;1.00;99.90
31309;DHT22;17936;52.446;10.840;2023-01-29T09:17:21;1.10;99.90
31309;DHT22;17936;52.446;10.840;2023-01-29T09:19:46;1.10;99.90
31309;DHT22;17936;52.446;10.840;2023-01-29T09:22:12;1.10;99.90
31309;DHT22;17936;52.446;10.840;2023-01-29T09:24:38;1.10;99.90
31309;DHT22;17936;52.446;10.840;2023-01-29T09:27:03;1.10;99.90
31309;DHT22;17936;52.446;10.840;2023-01-29T09:29:29;1.20;99.90
31309;DHT22;17936;52.446;10.840;2023-01-29T09:31:55;1.10;99.90
31309;DHT22;17936;52.446;10.840;2023-01-29T09:34:20;1.00;99.90
31309;DHT22;17936;52.446;10.840;2023-01-29T09:36:46;1.00;99.90
31309;DHT22;17936;52.446;10.840;2023-01-29T09:39:11;1.00;99.90
31309;DHT22;17936;52.446;10.840;2023-01-29T09:45:10;0.90;99.90
31309;DHT22;17936;52.446;10.840;2023-01-29T09:47:38;0.90;99.90
31309;DHT22;17936;52.446;10.840;2023-01-29T09:50:21;0.80;99.90
31309;DHT22;17936;52.446;10.840;2023-01-29T09:55:44;0.90;99.90
31309;DHT22;17936;52.446;10.840;2023-01-29T09:58:32;1.00;99.90
31309;DHT22;17936;52.446;10.840;2023-01-29T10:01:20;1.00;99.90
31309;DHT22;17936;52.446;10.840;2023-01-29T10:17:30;1.20;99.90
31309;DHT22;17936;52.446;10.840;2023-01-29T10:25:40;1.00;99.90
31309;DHT22;17936;52.446;10.840;2023-01-29T10:28:22;1.10;99.90
31309;DHT22;17936;52.446;10.840;2023-01-29T10:30:55;1.10;99.90
31309;DHT22;17936;52.446;10.840;2023-01-29T10:33:42;1.20;99.90
31309;DHT22;17936;52.446;10.840;2023-01-29T10:36:15;1.20;99.90
31309;DHT22;17936;52.446;10.840;2023-01-29T10:38:46;1.20;99.90
31309;DHT22;17936;52.446;10.840;2023-01-29T10:41:37;1.30;99.90
31309;DHT22;17936;52.446;10.840;2023-01-29T10:44:19;1.30;99.90
31309;DHT22;17936;52.446;10.840;2023-01-29T10:47:04;1.30;99.90
31309;DHT22;17936;52.446;10.840;2023-01-29T10:55:45;1.40;99.90
31309;DHT22;17936;52.446;10.840;2023-01-29T10:58:35;1.40;99.90
31309;DHT22;17936;52.446;10.840;2023-01-29T11:01:01;1.50;99.90
31309;DHT22;17936;52.446;10.840;2023-01-29T11:03:31;1.50;99.90
31309;DHT22;17936;52.446;10.840;2023-01-29T11:08:52;1.50;99.90
31309;DHT22;17936;52.446;10.840;2023-01-29T11:11:21;1.60;99.90
31309;DHT22;17936;52.446;10.840;2023-01-29T11:13:57;1.50;99.90
31309;DHT22;17936;52.446;10.840;2023-01-29T11:16:25;1.60;99.90
31309;DHT22;17936;52.446;10.840;2023-01-29T11:18:53;1.60;99.90
31309;DHT22;17936;52.446;10.840;2023-01-29T11:21:19;1.70;99.90
31309;DHT22;17936;52.446;10.840;2023-01-29T11:23:45;1.70;99.90
31309;DHT22;17936;52.446;10.840;2023-01-29T11:26:15;1.70;99.90
31309;DHT22;17936;52.446;10.840;2023-01-29T11:28:44;1.70;99.90
31309;DHT22;17936;52.446;10.840;2023-01-29T11:31:27;1.80;99.90
31309;DHT22;17936;52.446;10.840;2023-01-29T11:34:02;1.80;99.90
31309;DHT22;17936;52.446;10.840;2023-01-29T11:36:36;1.80;99.90
31309;DHT22;17936;52.446;10.840;2023-01-29T11:39:19;1.90;99.90
31309;DHT22;17936;52.446;10.840;2023-01-29T11:42:01;2.00;99.90
31309;DHT22;17936;52.446;10.840;2023-01-29T11:49:44;2.00;99.90
31309;DHT22;17936;52.446;10.840;2023-01-29T11:52:11;2.10;99.90
31309;DHT22;17936;52.446;10.840;2023-01-29T11:54:44;2.10;99.90
31309;DHT22;17936;52.446;10.840;2023-01-29T11:57:31;2.10;99.90
31309;DHT22;17936;52.446;10.840;2023-01-29T12:00:05;2.20;99.90
31309;DHT22;17936;52.446;10.840;2023-01-29T12:02:41;2.10;99.90
31309;DHT22;17936;52.446;10.840;2023-01-29T12:05:16;2.20;99.90
31309;DHT22;17936;52.446;10.840;2023-01-29T12:07:44;2.20;99.90
31309;DHT22;17936;52.446;10.840;2023-01-29T12:10:36;2.30;99.90
31309;DHT22;17936;52.446;10.840;2023-01-29T12:13:26;2.20;99.90
31309;DHT22;17936;52.446;10.840;2023-01-29T12:16:14;2.30;99.90
31309;DHT22;17936;52.446;10.840;2023-01-29T12:18:45;2.20;99.90
31309;DHT22;17936;52.446;10.840;2023-01-29T12:21:14;2.20;99.90
31309;DHT22;17936;52.446;10.840;2023-01-29T12:26:32;2.20;99.90
31309;DHT22;17936;52.446;10.840;2023-01-29T12:32:17;2.10;99.90
31309;DHT22;17936;52.446;10.840;2023-01-29T12:34:52;2.10;99.90
31309;DHT22;17936;52.446;10.840;2023-01-29T12:37:57;2.10;99.90
31309;DHT22;17936;52.446;10.840;2023-01-29T12:40:32;2.20;99.90
31309;DHT22;17936;52.446;10.840;2023-01-29T12:43:04;2.20;99.90
31309;DHT22;17936;52.446;10.840;2023-01-29T12:45:31;2.20;99.90
31309;DHT22;17936;52.446;10.840;2023-01-29T12:48:05;2.20;99.90
31309;DHT22;17936;52.446;10.840;2023-01-29T12:50:34;2.20;99.90
31309;DHT22;17936;52.446;10.840;2023-01-29T12:56:26;2.20;99.90
31309;DHT22;17936;52.446;10.840;2023-01-29T12:58:54;2.20;99.90
31309;DHT22;17936;52.446;10.840;2023-01-29T13:01:30;2.20;99.90
31309;DHT22;17936;52.446;10.840;2023-01-29T13:04:08;2.20;99.90
31309;DHT22;17936;52.446;10.840;2023-01-29T13:06:40;2.20;99.90
31309;DHT22;17936;52.446;10.840;2023-01-29T13:09:12;2.20;99.90
31309;DHT22;17936;52.446;10.840;2023-01-29T13:11:57;2.20;99.90
31309;DHT22;17936;52.446;10.840;2023-01-29T13:14:43;2.20;99.90
31309;DHT22;17936;52.446;10.840;2023-01-29T13:17:23;2.20;99.90
31309;DHT22;17936;52.446;10.840;2023-01-29T13:19:52;2.20;99.90
31309;DHT22;17936;52.446;10.840;2023-01-29T13:22:23;2.20;99.90
31309;DHT22;17936;52.446;10.840;2023-01-29T13:24:50;2.20;99.90
31309;DHT22;17936;52.446;10.840;2023-01-29T13:27:27;2.20;99.90
31309;DHT22;17936;52.446;10.840;2023-01-29T13:29:54;2.20;99.90
31309;DHT22;17936;52.446;10.840;2023-01-29T13:32:25;2.20;99.90
31309;DHT22;17936;52.446;10.840;2023-01-29T13:34:54;2.20;99.90
31309;DHT22;17936;52.446;10.840;2023-01-29T13:37:30;2.30;99.90
31309;DHT22;17936;52.446;10.840;2023-01-29T13:39:59;2.20;99.90
31309;DHT22;17936;52.446;10.840;2023-01-29T13:42:47;2.20;99.90
31309;DHT22;17936;52.446;10.840;2023-01-29T13:45:32;2.20;99.90
31309;DHT22;17936;52.446;10.840;2023-01-29T13:48:26;2.20;99.90
31309;DHT22;17936;52.446;10.840;2023-01-29T13:50:55;2.30;99.90
31309;DHT22;17936;52.446;10.840;2023-01-29T13:53:26;2.30;99.90
31309;DHT22;17936;52.446;10.840;2023-01-29T13:55:51;2.30;99.90
31309;DHT22;17936;52.446;10.840;2023-01-29T14:01:03;2.30;99.90
31309;DHT22;17936;52.446;10.840;2023-01-29T14:13:38;2.30;99.90
31309;DHT22;17936;52.446;10.840;2023-01-29T14:18:33;2.30;99.90
31309;DHT22;17936;52.446;10.840;2023-01-29T14:23:39;2.30;99.90
31309;DHT22;17936;52.446;10.840;2023-01-29T14:26:19;2.30;99.90
31309;DHT22;17936;52.446;10.840;2023-01-29T14:31:42;2.30;99.90
31309;DHT22;17936;52.446;10.840;2023-01-29T14:34:25;2.30;99.90
31309;DHT22;17936;52.446;10.840;2023-01-29T14:36:54;2.30;99.90
31309;DHT22;17936;52.446;10.840;2023-01-29T14:39:26;2.30;99.90
31309;DHT22;17936;52.446;10.840;2023-01-29T14:41:52;2.30;99.90
31309;DHT22;17936;52.446;10.840;2023-01-29T14:49:55;2.20;99.90
31309;DHT22;17936;52.446;10.840;2023-01-29T14:52:41;2.30;99.90
31309;DHT22;17936;52.446;10.840;2023-01-29T14:57:51;2.30;99.90
31309;DHT22;17936;52.446;10.840;2023-01-29T15:00:26;2.30;99.90
31309;DHT22;17936;52.446;10.840;2023-01-29T15:02:53;2.30;99.90
31309;DHT22;17936;52.446;10.840;2023-01-29T15:05:23;2.30;99.90
31309;DHT22;17936;52.446;10.840;2023-01-29T15:08:02;2.30;99.90
31309;DHT22;17936;52.446;10.840;2023-01-29T15:10:44;2.30;99.90
31309;DHT22;17936;52.446;10.840;2023-01-29T15:13:13;2.30;99.90
31309;DHT22;17936;52.446;10.840;2023-01-29T15:15:43;2.30;99.90
31309;DHT22;17936;52.446;10.840;2023-01-29T15:18:26;2.30;99.90
31309;DHT22;17936;52.446;10.840;2023-01-29T15:21:12;2.20;99.90
31309;DHT22;17936;52.446;10.840;2023-01-29T15:23:38;2.20;99.90
31309;DHT22;17936;52.446;10.840;2023-01-29T15:26:07;2.20;99.90
31309;DHT22;17936;52.446;10.840;2023-01-29T15:28:37;2.20;99.90
31309;DHT22;17936;52.446;10.840;2023-01-29T15:31:06;2.20;99.90
31309;DHT22;17936;52.446;10.840;2023-01-29T15:33:36;2.20;99.90
31309;DHT22;17936;52.446;10.840;2023-01-29T15:36:04;2.20;99.90
31309;DHT22;17936;52.446;10.840;2023-01-29T15:38:30;2.20;99.90
31309;DHT22;17936;52.446;10.840;2023-01-29T15:41:01;2.20;99.90
31309;DHT22;17936;52.446;10.840;2023-01-29T15:43:35;2.20;99.90
31309;DHT22;17936;52.446;10.840;2023-01-29T15:46:09;2.20;99.90
31309;DHT22;17936;52.446;10.840;2023-01-29T15:48:41;2.20;99.90
31309;DHT22;17936;52.446;10.840;2023-01-29T15:51:13;2.20;99.90
31309;DHT22;17936;52.446;10.840;2023-01-29T15:53:49;2.20;99.90
31309;DHT22;17936;52.446;10.840;2023-01-29T15:56:18;2.20;99.90
31309;DHT22;17936;52.446;10.840;2023-01-29T15:58:49;2.10;99.90
31309;DHT22;17936;52.446;10.840;2023-01-29T16:01:15;2.10;99.90
31309;DHT22;17936;52.446;10.840;2023-01-29T16:03:41;2.10;99.90
31309;DHT22;17936;52.446;10.840;2023-01-29T16:06:07;2.10;99.90
31309;DHT22;17936;52.446;10.840;2023-01-29T16:08:33;2.10;99.90
31309;DHT22;17936;52.446;10.840;2023-01-29T16:11:03;2.10;99.90
31309;DHT22;17936;52.446;10.840;2023-01-29T16:13:33;2.10;99.90
31309;DHT22;17936;52.446;10.840;2023-01-29T16:16:02;2.10;99.90
31309;DHT22;17936;52.446;10.840;2023-01-29T16:18:38;2.10;99.90
31309;DHT22;17936;52.446;10.840;2023-01-29T16:21:55;2.10;99.90
31309;DHT22;17936;52.446;10.840;2023-01-29T16:23:58;2.00;99.90
31309;DHT22;17936;52.446;10.840;2023-01-29T16:26:28;2.00;99.90
31309;DHT22;17936;52.446;10.840;2023-01-29T16:28:56;2.00;99.90
31309;DHT22;17936;52.446;10.840;2023-01-29T16:31:38;2.00;99.90
31309;DHT22;17936;52.446;10.840;2023-01-29T16:34:28;2.00;99.90
31309;DHT22;17936;52.446;10.840;2023-01-29T16:36:55;2.00;99.90
31309;DHT22;17936;52.446;10.840;2023-01-29T16:39:35;1.90;99.90
31309;DHT22;17936;52.446;10.840;2023-01-29T16:44:59;1.80;99.90
31309;DHT22;17936;52.446;10.840;2023-01-29T16:47:35;1.70;99.90
31309;DHT22;17936;52.446;10.840;2023-01-29T16:50:31;1.70;99.90
31309;DHT22;17936;52.446;10.840;2023-01-29T16:53:02;1.60;99.90
31309;DHT22;17936;52.446;10.840;2023-01-29T16:55:40;1.60;99.90
31309;DHT22;17936;52.446;10.840;2023-01-29T16:58:16;1.50;99.90
31309;DHT22;17936;52.446;10.840;2023-01-29T17:00:47;1.40;99.90
31309;DHT22;17936;52.446;10.840;2023-01-29T17:03:14;1.40;99.90
31309;DHT22;17936;52.446;10.840;2023-01-29T17:05:41;1.40;99.90
31309;DHT22;17936;52.446;10.840;2023-01-29T17:08:15;1.40;99.90
31309;DHT22;17936;52.446;10.840;2023-01-29T17:10:46;1.40;99.90
31309;DHT22;17936;52.446;10.840;2023-01-29T17:13:21;1.40;99.90
31309;DHT22;17936;52.446;10.840;2023-01-29T17:15:48;1.50;99.90
31309;DHT22;17936;52.446;10.840;2023-01-29T17:18:21;1.40;99.90
31309;DHT22;17936;52.446;10.840;2023-01-29T17:20:47;1.50;99.90
31309;DHT22;17936;52.446;10.840;2023-01-29T17:23:13;1.50;99.90
31309;DHT22;17936;52.446;10.840;2023-01-29T17:25:39;1.50;99.90
31309;DHT22;17936;52.446;10.840;2023-01-29T17:28:05;1.50;99.90
31309;DHT22;17936;52.446;10.840;2023-01-29T17:30:32;1.50;99.90
31309;DHT22;17936;52.446;10.840;2023-01-29T17:32:59;1.50;99.90
31309;DHT22;17936;52.446;10.840;2023-01-29T17:35:27;1.50;99.90
31309;DHT22;17936;52.446;10.840;2023-01-29T17:37:52;1.50;99.90
31309;DHT22;17936;52.446;10.840;2023-01-29T17:40:29;1.50;99.90
31309;DHT22;17936;52.446;10.840;2023-01-29T17:42:57;1.50;99.90
31309;DHT22;17936;52.446;10.840;2023-01-29T17:45:23;1.60;99.90
31309;DHT22;17936;52.446;10.840;2023-01-29T17:47:48;1.60;99.90
31309;DHT22;17936;52.446;10.840;2023-01-29T17:50:21;1.60;99.90
31309;DHT22;17936;52.446;10.840;2023-01-29T17:52:48;1.60;99.90
31309;DHT22;17936;52.446;10.840;2023-01-29T17:55:14;1.60;99.90
31309;DHT22;17936;52.446;10.840;2023-01-29T17:57:40;1.70;99.90
31309;DHT22;17936;52.446;10.840;2023-01-29T18:00:16;1.70;99.90
31309;DHT22;17936;52.446;10.840;2023-01-29T18:02:42;1.80;99.90